Time;durP1;ratioP1;P1;durP2;ratioP2;P2;SDS_P1;SDS_P2;PMS_P1;PMS_P2;Temp;Humidity;BMP_temperature;BMP_pressure;BME280_temperature;BME280_humidity;BME280_pressure;Samples;Min_cycle;Max_cycle;Signal;HPM_P1;HPM_P2
2021/06/07 00:04:46;;;;;;;4.8;3.8;;;;;;;16.2;53.9;102200;;;;
2021/06/07 00:06:46;;;;;;;4.8;3.8;;;;;;;15.9;54.7;102200;;;;
2021/06/07 00:10:46;;;;;;;4.8;3.8;;;;;;;15.8;55.2;102200;;;;
2021/06/07 00:12:46;;;;;;;4.8;3.8;;;;;;;15.9;54.9;102200;;;;
2021/06/07 00:16:46;;;;;;;4.8;3.8;;;;;;;15.8;54.9;102200;;;;
2021/06/07 00:22:46;;;;;;;4.8;3.8;;;;;;;15.7;54.9;102200;;;;
2021/06/07 00:24:46;;;;;;;4.8;3.8;;;;;;;15.9;54.4;102200;;;;
2021/06/07 00:26:46;;;;;;;4.8;3.8;;;;;;;15.8;54.9;102200;;;;
2021/06/07 00:28:46;;;;;;;4.8;3.8;;;;;;;15.6;56.2;102200;;;;
2021/06/07 00:32:46;;;;;;;4.8;3.8;;;;;;;15.5;55.8;102200;;;;
2021/06/07 00:38:46;;;;;;;4.8;3.8;;;;;;;15.4;55.2;102200;;;;
2021/06/07 00:42:46;;;;;;;4.8;3.8;;;;;;;15.3;56.2;102210;;;;
2021/06/07 00:44:46;;;;;;;5.5;4.1;;;;;;;15.4;55.8;102200;;;;
2021/06/07 00:56:46;;;;;;;5.5;4.1;;;;;;;15.2;55.6;102200;;;;
2021/06/07 01:04:46;;;;;;;5.6;5.0;;;;;;;15.3;55.4;102200;;;;
2021/06/07 01:06:46;;;;;;;5.6;5.0;;;;;;;15.1;56.4;102190;;;;
2021/06/07 01:08:46;;;;;;;5.6;5.0;;;;;;;15.0;56.9;102190;;;;
2021/06/07 01:18:46;;;;;;;5.6;5.0;;;;;;;14.8;57.5;102190;;;;
2021/06/07 01:20:46;;;;;;;5.6;5.0;;;;;;;14.9;57.4;102200;;;;
2021/06/07 01:24:46;;;;;;;6.6;6.0;;;;;;;14.7;57.8;102190;;;;
2021/06/07 01:28:46;;;;;;;6.6;6.0;;;;;;;14.8;57.3;102190;;;;
2021/06/07 01:32:46;;;;;;;6.6;6.0;;;;;;;14.6;59.0;102180;;;;
2021/06/07 01:36:46;;;;;;;6.6;6.0;;;;;;;14.7;58.1;102180;;;;
2021/06/07 01:46:46;;;;;;;5.9;5.3;;;;;;;14.6;58.2;102180;;;;
2021/06/07 01:50:46;;;;;;;5.9;5.3;;;;;;;14.5;58.1;102180;;;;
2021/06/07 01:52:46;;;;;;;5.9;5.3;;;;;;;14.4;57.9;102180;;;;
2021/06/07 01:54:46;;;;;;;5.9;5.3;;;;;;;14.5;58.0;102170;;;;
2021/06/07 01:56:46;;;;;;;5.9;5.3;;;;;;;14.4;58.2;102170;;;;
2021/06/07 02:00:46;;;;;;;5.9;5.3;;;;;;;14.5;57.2;102180;;;;
2021/06/07 02:02:46;;;;;;;5.9;5.3;;;;;;;14.2;58.3;102180;;;;
2021/06/07 02:04:46;;;;;;;7.3;6.4;;;;;;;14.5;57.0;102180;;;;
2021/06/07 02:06:46;;;;;;;7.3;6.4;;;;;;;14.4;57.8;102180;;;;
2021/06/07 02:10:46;;;;;;;7.3;6.4;;;;;;;14.3;57.6;102180;;;;
2021/06/07 02:22:46;;;;;;;7.3;6.4;;;;;;;14.1;57.8;102180;;;;
2021/06/07 02:24:46;;;;;;;6.7;6.0;;;;;;;14.2;57.6;102180;;;;
2021/06/07 02:26:46;;;;;;;6.7;6.0;;;;;;;14.0;58.6;102190;;;;
2021/06/07 02:28:46;;;;;;;6.7;6.0;;;;;;;14.1;57.4;102180;;;;
2021/06/07 02:40:46;;;;;;;6.7;6.0;;;;;;;14.0;57.1;102180;;;;
2021/06/07 02:44:46;;;;;;;6.6;5.8;;;;;;;14.2;56.7;102180;;;;
2021/06/07 02:46:46;;;;;;;6.6;5.8;;;;;;;14.0;57.3;102190;;;;
2021/06/07 02:48:46;;;;;;;6.6;5.8;;;;;;;13.9;57.3;102180;;;;
2021/06/07 02:54:46;;;;;;;6.6;5.8;;;;;;;13.8;57.8;102200;;;;
2021/06/07 02:58:46;;;;;;;6.6;5.8;;;;;;;13.7;58.0;102200;;;;
2021/06/07 03:04:46;;;;;;;7.9;6.5;;;;;;;13.8;57.4;102200;;;;
2021/06/07 03:06:46;;;;;;;7.9;6.5;;;;;;;13.7;57.2;102200;;;;
2021/06/07 03:10:46;;;;;;;7.9;6.5;;;;;;;13.6;59.1;102200;;;;
2021/06/07 03:22:46;;;;;;;7.9;6.5;;;;;;;13.5;58.1;102210;;;;
2021/06/07 03:28:46;;;;;;;6.3;5.7;;;;;;;13.6;58.0;102210;;;;
2021/06/07 03:30:46;;;;;;;6.3;5.7;;;;;;;13.5;57.6;102210;;;;
2021/06/07 03:34:46;;;;;;;6.3;5.7;;;;;;;13.4;58.3;102210;;;;
2021/06/07 03:42:46;;;;;;;6.3;5.7;;;;;;;13.3;57.8;102220;;;;
2021/06/07 03:44:46;;;;;;;7.2;6.1;;;;;;;13.4;57.7;102210;;;;
2021/06/07 03:48:46;;;;;;;7.2;6.1;;;;;;;13.3;58.6;102220;;;;
2021/06/07 03:58:46;;;;;;;7.2;6.1;;;;;;;13.2;58.6;102210;;;;
2021/06/07 04:14:46;;;;;;;6.1;5.5;;;;;;;13.1;59.1;102220;;;;
2021/06/07 04:18:46;;;;;;;6.1;5.5;;;;;;;13.2;58.3;102220;;;;
2021/06/07 04:24:46;;;;;;;6.6;5.6;;;;;;;13.3;58.0;102220;;;;
2021/06/07 04:28:46;;;;;;;6.6;5.6;;;;;;;13.1;60.1;102220;;;;
2021/06/07 04:30:46;;;;;;;6.6;5.6;;;;;;;13.2;58.9;102220;;;;
2021/06/07 04:36:46;;;;;;;6.6;5.6;;;;;;;13.1;60.0;102220;;;;
2021/06/07 04:40:46;;;;;;;6.6;5.6;;;;;;;13.2;58.8;102220;;;;
2021/06/07 04:42:46;;;;;;;6.6;5.6;;;;;;;13.3;58.6;102220;;;;
2021/06/07 04:44:46;;;;;;;6.4;5.8;;;;;;;13.4;58.5;102220;;;;
2021/06/07 04:46:46;;;;;;;6.4;5.8;;;;;;;13.3;58.9;102220;;;;
2021/06/07 04:48:46;;;;;;;6.4;5.8;;;;;;;13.2;60.0;102220;;;;
2021/06/07 05:00:46;;;;;;;6.4;5.8;;;;;;;13.4;59.4;102220;;;;
2021/06/07 05:02:46;;;;;;;6.4;5.8;;;;;;;13.5;60.1;102220;;;;
2021/06/07 05:04:46;;;;;;;5.3;4.8;;;;;;;13.6;58.5;102220;;;;
2021/06/07 05:20:46;;;;;;;5.3;4.8;;;;;;;13.7;59.2;102220;;;;
2021/06/07 05:22:46;;;;;;;5.3;4.8;;;;;;;13.8;59.2;102220;;;;
2021/06/07 05:24:46;;;;;;;5.4;4.9;;;;;;;13.9;58.1;102220;;;;
2021/06/07 05:32:46;;;;;;;5.4;4.9;;;;;;;14.0;58.7;102230;;;;
2021/06/07 05:34:46;;;;;;;5.4;4.9;;;;;;;13.9;59.1;102230;;;;
2021/06/07 05:36:46;;;;;;;5.4;4.9;;;;;;;14.0;59.1;102230;;;;
2021/06/07 05:38:46;;;;;;;5.4;4.9;;;;;;;14.1;59.1;102230;;;;
2021/06/07 05:42:46;;;;;;;5.4;4.9;;;;;;;14.2;58.5;102230;;;;
2021/06/07 05:44:46;;;;;;;4.3;3.9;;;;;;;14.4;58.3;102230;;;;
2021/06/07 05:50:46;;;;;;;4.3;3.9;;;;;;;14.5;58.0;102230;;;;
2021/06/07 05:54:46;;;;;;;4.3;3.9;;;;;;;14.6;57.9;102230;;;;
2021/06/07 05:56:53;;;;;;;4.3;3.9;;;;;;;14.8;57.1;102230;;;;
2021/06/07 06:00:46;;;;;;;4.3;3.9;;;;;;;14.9;56.7;102230;;;;
2021/06/07 06:04:46;;;;;;;5.7;3.9;;;;;;;15.0;56.6;102230;;;;
2021/06/07 06:06:46;;;;;;;5.7;3.9;;;;;;;15.1;56.7;102230;;;;
2021/06/07 06:10:56;;;;;;;5.7;3.9;;;;;;;15.3;56.4;102230;;;;
2021/06/07 06:14:46;;;;;;;5.7;3.9;;;;;;;15.4;55.8;102230;;;;
2021/06/07 06:16:46;;;;;;;5.7;3.9;;;;;;;15.3;55.2;102220;;;;
2021/06/07 06:18:46;;;;;;;5.7;3.9;;;;;;;15.4;55.4;102220;;;;
2021/06/07 06:20:46;;;;;;;5.7;3.9;;;;;;;15.5;55.0;102220;;;;
2021/06/07 06:22:46;;;;;;;5.7;3.9;;;;;;;15.7;54.9;102220;;;;
2021/06/07 06:24:46;;;;;;;3.8;3.0;;;;;;;15.8;54.2;102220;;;;
2021/06/07 06:26:46;;;;;;;3.8;3.0;;;;;;;15.7;54.0;102220;;;;
2021/06/07 06:30:46;;;;;;;3.8;3.0;;;;;;;15.8;53.7;102220;;;;
2021/06/07 06:32:46;;;;;;;3.8;3.0;;;;;;;15.7;53.7;102220;;;;
2021/06/07 06:34:48;;;;;;;3.8;3.0;;;;;;;15.9;53.5;102220;;;;
2021/06/07 06:40:47;;;;;;;3.8;3.0;;;;;;;16.1;53.7;102220;;;;
2021/06/07 06:42:46;;;;;;;3.8;3.0;;;;;;;16.0;53.1;102220;;;;
2021/06/07 06:44:46;;;;;;;3.5;2.8;;;;;;;16.1;52.7;102220;;;;
2021/06/07 06:48:47;;;;;;;3.5;2.8;;;;;;;16.2;52.1;102220;;;;
2021/06/07 06:50:46;;;;;;;3.5;2.8;;;;;;;16.1;52.5;102220;;;;
2021/06/07 06:52:46;;;;;;;3.5;2.8;;;;;;;16.2;52.0;102220;;;;
2021/06/07 06:54:46;;;;;;;3.5;2.8;;;;;;;16.3;51.7;102220;;;;
2021/06/07 07:02:46;;;;;;;3.5;2.8;;;;;;;16.4;51.2;102220;;;;
2021/06/07 07:04:46;;;;;;;2.9;2.4;;;;;;;16.5;51.1;102220;;;;
2021/06/07 07:08:46;;;;;;;2.9;2.4;;;;;;;16.6;51.8;102220;;;;
2021/06/07 07:12:47;;;;;;;2.9;2.4;;;;;;;16.7;51.6;102220;;;;
2021/06/07 07:18:46;;;;;;;2.9;2.4;;;;;;;16.8;52.3;102220;;;;
2021/06/07 07:20:46;;;;;;;2.9;2.4;;;;;;;17.0;50.9;102220;;;;
2021/06/07 07:22:46;;;;;;;2.9;2.4;;;;;;;16.9;51.0;102220;;;;
2021/06/07 07:24:47;;;;;;;2.4;2.2;;;;;;;17.0;50.5;102220;;;;
2021/06/07 07:30:56;;;;;;;2.4;2.2;;;;;;;17.2;49.6;102220;;;;
2021/06/07 07:32:46;;;;;;;2.4;2.2;;;;;;;17.1;49.9;102220;;;;
2021/06/07 07:34:46;;;;;;;2.4;2.2;;;;;;;17.2;50.5;102220;;;;
2021/06/07 07:38:46;;;;;;;2.4;2.2;;;;;;;17.5;49.2;102220;;;;
2021/06/07 07:44:46;;;;;;;3.7;1.9;;;;;;;17.7;48.4;102220;;;;
2021/06/07 07:46:46;;;;;;;3.7;1.9;;;;;;;17.6;48.0;102220;;;;
2021/06/07 07:50:47;;;;;;;3.7;1.9;;;;;;;17.5;48.0;102220;;;;
2021/06/07 07:52:46;;;;;;;3.7;1.9;;;;;;;17.8;47.4;102220;;;;
2021/06/07 07:54:46;;;;;;;3.7;1.9;;;;;;;17.7;47.6;102220;;;;
2021/06/07 07:58:46;;;;;;;3.7;1.9;;;;;;;17.8;47.1;102220;;;;
2021/06/07 08:00:47;;;;;;;3.7;1.9;;;;;;;17.9;46.3;102220;;;;
2021/06/07 08:02:46;;;;;;;3.7;1.9;;;;;;;17.8;44.9;102210;;;;
2021/06/07 08:04:47;;;;;;;2.4;1.6;;;;;;;18.0;46.3;102220;;;;
2021/06/07 08:06:46;;;;;;;2.4;1.6;;;;;;;18.1;45.8;102210;;;;
2021/06/07 08:12:46;;;;;;;2.4;1.6;;;;;;;18.2;45.5;102220;;;;
2021/06/07 08:18:46;;;;;;;2.4;1.6;;;;;;;18.4;46.2;102210;;;;
2021/06/07 08:24:46;;;;;;;3.0;1.9;;;;;;;18.6;45.9;102210;;;;
2021/06/07 08:28:46;;;;;;;3.0;1.9;;;;;;;18.7;46.0;102210;;;;
2021/06/07 08:32:46;;;;;;;3.0;1.9;;;;;;;18.8;45.3;102210;;;;
2021/06/07 08:34:46;;;;;;;3.0;1.9;;;;;;;18.9;45.8;102210;;;;
2021/06/07 08:36:46;;;;;;;3.0;1.9;;;;;;;19.0;45.4;102210;;;;
2021/06/07 08:40:47;;;;;;;3.0;1.9;;;;;;;19.2;44.9;102210;;;;
2021/06/07 08:42:47;;;;;;;3.0;1.9;;;;;;;19.1;44.6;102210;;;;
2021/06/07 08:48:46;;;;;;;2.9;2.1;;;;;;;19.2;43.7;102210;;;;
2021/06/07 08:50:46;;;;;;;2.9;2.1;;;;;;;19.3;44.6;102200;;;;
2021/06/07 08:52:46;;;;;;;2.9;2.1;;;;;;;19.4;44.8;102210;;;;
2021/06/07 08:54:46;;;;;;;2.9;2.1;;;;;;;19.5;44.6;102210;;;;
2021/06/07 08:56:46;;;;;;;2.9;2.1;;;;;;;19.4;43.4;102210;;;;
2021/06/07 08:58:56;;;;;;;2.9;2.1;;;;;;;19.2;43.2;102200;;;;
2021/06/07 09:00:46;;;;;;;2.9;2.1;;;;;;;19.3;42.0;102200;;;;
2021/06/07 09:02:46;;;;;;;2.9;2.1;;;;;;;19.4;43.6;102200;;;;
2021/06/07 09:04:46;;;;;;;4.5;2.0;;;;;;;19.6;42.8;102200;;;;
2021/06/07 09:06:46;;;;;;;4.5;2.0;;;;;;;19.7;42.9;102200;;;;
2021/06/07 09:08:46;;;;;;;4.5;2.0;;;;;;;19.8;44.5;102200;;;;
2021/06/07 09:10:46;;;;;;;4.5;2.0;;;;;;;19.7;42.7;102200;;;;
2021/06/07 09:12:46;;;;;;;4.5;2.0;;;;;;;20.0;42.9;102200;;;;
2021/06/07 09:16:46;;;;;;;4.5;2.0;;;;;;;19.9;43.5;102200;;;;
2021/06/07 09:20:46;;;;;;;4.5;2.0;;;;;;;20.0;44.0;102210;;;;
2021/06/07 09:24:46;;;;;;;3.0;2.7;;;;;;;20.2;45.0;102200;;;;
2021/06/07 09:26:46;;;;;;;3.0;2.7;;;;;;;20.3;45.3;102200;;;;
2021/06/07 09:32:46;;;;;;;3.0;2.7;;;;;;;20.2;44.5;102210;;;;
2021/06/07 09:34:46;;;;;;;3.0;2.7;;;;;;;20.4;44.6;102200;;;;
2021/06/07 09:36:47;;;;;;;3.0;2.7;;;;;;;20.5;44.9;102200;;;;
2021/06/07 09:40:46;;;;;;;3.0;2.7;;;;;;;20.6;43.5;102200;;;;
2021/06/07 09:42:46;;;;;;;3.0;2.7;;;;;;;20.8;43.2;102200;;;;
2021/06/07 09:44:46;;;;;;;3.6;2.1;;;;;;;20.7;42.2;102200;;;;
2021/06/07 09:46:46;;;;;;;3.6;2.1;;;;;;;20.6;41.8;102200;;;;
2021/06/07 09:48:46;;;;;;;3.6;2.1;;;;;;;20.4;42.4;102200;;;;
2021/06/07 09:50:46;;;;;;;3.6;2.1;;;;;;;20.3;41.2;102210;;;;
2021/06/07 09:54:46;;;;;;;3.6;2.1;;;;;;;20.5;42.2;102200;;;;
2021/06/07 09:58:47;;;;;;;3.6;2.1;;;;;;;20.7;42.9;102200;;;;
2021/06/07 10:00:50;;;;;;;3.6;2.1;;;;;;;20.8;42.0;102210;;;;
2021/06/07 10:02:46;;;;;;;3.6;2.1;;;;;;;20.9;41.2;102210;;;;
2021/06/07 10:04:46;;;;;;;2.5;2.1;;;;;;;21.0;42.5;102210;;;;
2021/06/07 10:06:46;;;;;;;2.5;2.1;;;;;;;21.1;41.3;102210;;;;
2021/06/07 10:10:46;;;;;;;2.5;2.1;;;;;;;21.0;41.3;102200;;;;
2021/06/07 10:12:46;;;;;;;2.5;2.1;;;;;;;20.8;40.4;102200;;;;
2021/06/07 10:14:46;;;;;;;2.5;2.1;;;;;;;20.9;41.2;102200;;;;
2021/06/07 10:16:46;;;;;;;2.5;2.1;;;;;;;21.0;41.5;102190;;;;
2021/06/07 10:18:46;;;;;;;2.5;2.1;;;;;;;21.3;40.2;102190;;;;
2021/06/07 10:20:47;;;;;;;2.5;2.1;;;;;;;21.2;40.4;102190;;;;
2021/06/07 10:22:46;;;;;;;2.5;2.1;;;;;;;21.1;39.6;102200;;;;
2021/06/07 10:28:46;;;;;;;2.9;2.6;;;;;;;21.4;40.6;102200;;;;
2021/06/07 10:30:46;;;;;;;2.9;2.6;;;;;;;21.3;40.5;102190;;;;
2021/06/07 10:32:46;;;;;;;2.9;2.6;;;;;;;21.2;40.3;102200;;;;
2021/06/07 10:34:46;;;;;;;2.9;2.6;;;;;;;21.5;40.7;102190;;;;
2021/06/07 10:38:46;;;;;;;2.9;2.6;;;;;;;21.4;39.2;102200;;;;
2021/06/07 10:40:49;;;;;;;2.9;2.6;;;;;;;21.5;40.5;102190;;;;
2021/06/07 10:42:46;;;;;;;2.9;2.6;;;;;;;21.6;40.1;102190;;;;
2021/06/07 10:46:46;;;;;;;2.7;2.1;;;;;;;21.8;39.8;102190;;;;
2021/06/07 10:50:46;;;;;;;2.7;2.1;;;;;;;21.7;39.1;102180;;;;
2021/06/07 10:54:46;;;;;;;2.7;2.1;;;;;;;21.8;38.9;102180;;;;
2021/06/07 10:56:46;;;;;;;2.7;2.1;;;;;;;21.5;39.2;102190;;;;
2021/06/07 10:58:46;;;;;;;2.7;2.1;;;;;;;21.8;40.2;102180;;;;
2021/06/07 11:00:46;;;;;;;2.7;2.1;;;;;;;21.9;39.5;102180;;;;
2021/06/07 11:02:46;;;;;;;2.7;2.1;;;;;;;22.0;39.9;102180;;;;
2021/06/07 11:04:46;;;;;;;4.3;2.8;;;;;;;21.8;39.0;102180;;;;
2021/06/07 11:06:46;;;;;;;4.3;2.8;;;;;;;21.7;38.5;102180;;;;
2021/06/07 11:08:47;;;;;;;4.3;2.8;;;;;;;22.0;38.8;102180;;;;
2021/06/07 11:10:47;;;;;;;4.3;2.8;;;;;;;21.9;39.0;102180;;;;
2021/06/07 11:12:46;;;;;;;4.3;2.8;;;;;;;22.0;38.9;102180;;;;
2021/06/07 11:20:46;;;;;;;4.3;2.8;;;;;;;21.9;39.4;102170;;;;
2021/06/07 11:22:46;;;;;;;4.3;2.8;;;;;;;22.3;39.6;102180;;;;
2021/06/07 11:24:51;;;;;;;2.8;2.0;;;;;;;22.1;38.4;102180;;;;
2021/06/07 11:26:46;;;;;;;2.8;2.0;;;;;;;22.2;38.9;102180;;;;
2021/06/07 11:28:46;;;;;;;2.8;2.0;;;;;;;22.3;38.2;102180;;;;
2021/06/07 11:30:46;;;;;;;2.8;2.0;;;;;;;22.2;38.4;102170;;;;
2021/06/07 11:32:46;;;;;;;2.8;2.0;;;;;;;22.3;38.6;102170;;;;
2021/06/07 11:34:46;;;;;;;2.8;2.0;;;;;;;22.4;38.2;102170;;;;
2021/06/07 11:38:46;;;;;;;2.8;2.0;;;;;;;22.3;39.1;102160;;;;
2021/06/07 11:40:46;;;;;;;2.8;2.0;;;;;;;22.4;39.2;102170;;;;
2021/06/07 11:44:46;;;;;;;3.4;2.6;;;;;;;22.7;38.5;102160;;;;
2021/06/07 11:46:46;;;;;;;3.4;2.6;;;;;;;22.4;37.3;102160;;;;
2021/06/07 11:50:46;;;;;;;3.4;2.6;;;;;;;22.5;37.1;102170;;;;
2021/06/07 11:52:54;;;;;;;3.4;2.6;;;;;;;22.7;38.3;102160;;;;
2021/06/07 11:54:46;;;;;;;3.4;2.6;;;;;;;22.9;38.7;102150;;;;
2021/06/07 11:56:46;;;;;;;3.4;2.6;;;;;;;23.0;38.2;102150;;;;
2021/06/07 12:00:46;;;;;;;3.4;2.6;;;;;;;22.7;36.6;102150;;;;
2021/06/07 12:02:46;;;;;;;3.4;2.6;;;;;;;22.6;35.7;102150;;;;
2021/06/07 12:04:47;;;;;;;4.3;1.8;;;;;;;22.8;36.4;102150;;;;
2021/06/07 12:10:46;;;;;;;4.3;1.8;;;;;;;23.0;39.2;102150;;;;
2021/06/07 12:12:46;;;;;;;4.3;1.8;;;;;;;22.9;34.9;102140;;;;
2021/06/07 12:14:46;;;;;;;4.3;1.8;;;;;;;23.0;36.9;102140;;;;
2021/06/07 12:16:46;;;;;;;4.3;1.8;;;;;;;23.2;34.4;102140;;;;
2021/06/07 12:20:46;;;;;;;4.3;1.8;;;;;;;23.1;35.6;102130;;;;
2021/06/07 12:22:46;;;;;;;4.3;1.8;;;;;;;23.2;35.0;102140;;;;
2021/06/07 12:24:46;;;;;;;2.3;1.6;;;;;;;23.1;34.7;102130;;;;
2021/06/07 12:28:46;;;;;;;2.3;1.6;;;;;;;23.4;35.9;102130;;;;
2021/06/07 12:32:49;;;;;;;2.3;1.6;;;;;;;23.3;35.4;102120;;;;
2021/06/07 12:34:46;;;;;;;2.3;1.6;;;;;;;23.2;35.0;102120;;;;
2021/06/07 12:36:46;;;;;;;2.3;1.6;;;;;;;23.4;35.1;102120;;;;
2021/06/07 12:38:47;;;;;;;2.3;1.6;;;;;;;23.5;37.3;102120;;;;
2021/06/07 12:40:46;;;;;;;2.3;1.6;;;;;;;23.3;36.9;102120;;;;
2021/06/07 12:42:46;;;;;;;3.1;2.0;;;;;;;23.5;38.8;102110;;;;
2021/06/07 12:44:46;;;;;;;3.1;2.0;;;;;;;23.6;36.7;102110;;;;
2021/06/07 12:48:46;;;;;;;3.1;2.0;;;;;;;23.8;35.9;102110;;;;
2021/06/07 12:50:46;;;;;;;3.1;2.0;;;;;;;23.7;35.6;102110;;;;
2021/06/07 12:52:47;;;;;;;3.1;2.0;;;;;;;23.8;35.6;102110;;;;
2021/06/07 12:56:46;;;;;;;3.1;2.0;;;;;;;23.6;34.6;102110;;;;
2021/06/07 12:58:46;;;;;;;3.1;2.0;;;;;;;23.4;35.8;102100;;;;
2021/06/07 13:00:46;;;;;;;3.1;2.0;;;;;;;23.5;35.9;102100;;;;
2021/06/07 13:06:46;;;;;;;3.2;2.1;;;;;;;23.7;34.9;102100;;;;
2021/06/07 13:08:46;;;;;;;3.2;2.1;;;;;;;24.1;36.6;102100;;;;
2021/06/07 13:10:48;;;;;;;3.2;2.1;;;;;;;24.4;35.7;102100;;;;
2021/06/07 13:14:46;;;;;;;3.2;2.1;;;;;;;24.6;35.2;102100;;;;
2021/06/07 13:16:46;;;;;;;3.2;2.1;;;;;;;24.4;36.2;102100;;;;
2021/06/07 13:22:46;;;;;;;3.6;2.5;;;;;;;24.3;34.7;102100;;;;
2021/06/07 13:24:46;;;;;;;3.6;2.5;;;;;;;24.2;34.8;102100;;;;
2021/06/07 13:26:46;;;;;;;3.6;2.5;;;;;;;24.7;36.2;102090;;;;
2021/06/07 13:28:48;;;;;;;3.6;2.5;;;;;;;24.5;35.1;102100;;;;
2021/06/07 13:30:46;;;;;;;3.6;2.5;;;;;;;24.7;36.0;102090;;;;
2021/06/07 13:32:47;;;;;;;3.6;2.5;;;;;;;24.3;33.5;102100;;;;
2021/06/07 13:34:46;;;;;;;3.6;2.5;;;;;;;24.5;34.3;102090;;;;
2021/06/07 13:36:46;;;;;;;3.6;2.5;;;;;;;24.6;34.5;102090;;;;
2021/06/07 13:42:46;;;;;;;2.1;1.7;;;;;;;24.8;34.2;102090;;;;
2021/06/07 13:44:46;;;;;;;2.1;1.7;;;;;;;24.7;33.3;102090;;;;
2021/06/07 13:46:46;;;;;;;2.1;1.7;;;;;;;24.9;35.0;102090;;;;
2021/06/07 13:52:46;;;;;;;2.1;1.7;;;;;;;25.1;37.6;102090;;;;
2021/06/07 13:54:46;;;;;;;2.1;1.7;;;;;;;25.4;35.0;102090;;;;
2021/06/07 13:56:46;;;;;;;2.1;1.7;;;;;;;25.6;37.1;102090;;;;
2021/06/07 13:58:46;;;;;;;2.1;1.7;;;;;;;26.0;35.5;102080;;;;
2021/06/07 14:00:46;;;;;;;2.1;1.7;;;;;;;26.4;35.0;102080;;;;
2021/06/07 14:02:46;;;;;;;2.6;1.8;;;;;;;25.7;32.7;102080;;;;
2021/06/07 14:04:46;;;;;;;2.6;1.8;;;;;;;25.5;35.4;102080;;;;
2021/06/07 14:06:49;;;;;;;2.6;1.8;;;;;;;25.8;35.8;102080;;;;
2021/06/07 14:08:46;;;;;;;2.6;1.8;;;;;;;25.7;32.6;102080;;;;
2021/06/07 14:10:46;;;;;;;2.6;1.8;;;;;;;26.0;31.7;102080;;;;
2021/06/07 14:12:46;;;;;;;2.6;1.8;;;;;;;25.8;32.7;102080;;;;
2021/06/07 14:14:46;;;;;;;2.6;1.8;;;;;;;25.7;31.7;102080;;;;
2021/06/07 14:16:46;;;;;;;2.6;1.8;;;;;;;25.9;31.3;102080;;;;
2021/06/07 14:18:46;;;;;;;2.6;1.8;;;;;;;25.7;31.3;102080;;;;
2021/06/07 14:20:47;;;;;;;2.6;1.8;;;;;;;26.0;31.4;102080;;;;
2021/06/07 14:24:46;;;;;;;2.6;1.7;;;;;;;26.3;30.2;102070;;;;
2021/06/07 14:26:46;;;;;;;2.6;1.7;;;;;;;26.4;30.2;102070;;;;
2021/06/07 14:28:46;;;;;;;2.6;1.7;;;;;;;26.5;30.1;102070;;;;
2021/06/07 14:30:47;;;;;;;2.6;1.7;;;;;;;27.0;32.0;102070;;;;
2021/06/07 14:32:46;;;;;;;2.6;1.7;;;;;;;27.2;31.4;102070;;;;
2021/06/07 14:34:46;;;;;;;2.6;1.7;;;;;;;26.9;30.6;102070;;;;
2021/06/07 14:38:46;;;;;;;2.6;1.7;;;;;;;26.7;30.1;102070;;;;
2021/06/07 14:40:49;;;;;;;2.6;1.7;;;;;;;27.3;29.9;102060;;;;
2021/06/07 14:42:46;;;;;;;2.1;1.6;;;;;;;27.5;31.7;102060;;;;
2021/06/07 14:44:46;;;;;;;2.1;1.6;;;;;;;27.8;30.0;102060;;;;
2021/06/07 14:46:46;;;;;;;2.1;1.6;;;;;;;28.2;29.2;102060;;;;
2021/06/07 14:50:47;;;;;;;2.1;1.6;;;;;;;28.0;29.7;102060;;;;
2021/06/07 14:52:46;;;;;;;2.1;1.6;;;;;;;28.2;28.7;102050;;;;
2021/06/07 14:54:46;;;;;;;2.1;1.6;;;;;;;28.0;29.5;102050;;;;
2021/06/07 14:56:48;;;;;;;2.1;1.6;;;;;;;28.1;29.7;102050;;;;
2021/06/07 14:58:46;;;;;;;2.1;1.6;;;;;;;27.8;28.2;102060;;;;
2021/06/07 15:00:46;;;;;;;2.1;1.6;;;;;;;28.6;31.6;102050;;;;
2021/06/07 15:04:46;;;;;;;2.6;1.8;;;;;;;28.5;29.8;102040;;;;
2021/06/07 15:06:46;;;;;;;2.6;1.8;;;;;;;28.2;29.3;102050;;;;
2021/06/07 15:08:46;;;;;;;2.6;1.8;;;;;;;28.4;29.1;102050;;;;
2021/06/07 15:10:46;;;;;;;2.6;1.8;;;;;;;28.6;30.2;102040;;;;
2021/06/07 15:12:46;;;;;;;2.6;1.8;;;;;;;28.7;26.9;102040;;;;
2021/06/07 15:14:46;;;;;;;2.6;1.8;;;;;;;29.0;29.6;102040;;;;
2021/06/07 15:16:46;;;;;;;2.6;1.8;;;;;;;29.8;29.9;102040;;;;
2021/06/07 15:18:46;;;;;;;2.6;1.8;;;;;;;29.6;27.3;102040;;;;
2021/06/07 15:20:46;;;;;;;2.6;1.8;;;;;;;28.9;26.7;102030;;;;
2021/06/07 15:22:46;;;;;;;4.3;1.9;;;;;;;29.7;28.0;102040;;;;
2021/06/07 15:30:46;;;;;;;4.3;1.9;;;;;;;30.0;28.9;102030;;;;
2021/06/07 15:32:46;;;;;;;4.3;1.9;;;;;;;30.5;26.5;102020;;;;
2021/06/07 15:34:46;;;;;;;4.3;1.9;;;;;;;29.7;27.4;102030;;;;
2021/06/07 15:36:46;;;;;;;4.3;1.9;;;;;;;29.3;26.4;102020;;;;
2021/06/07 15:38:46;;;;;;;4.3;1.9;;;;;;;29.6;26.3;102030;;;;
2021/06/07 15:40:46;;;;;;;4.3;1.9;;;;;;;30.2;28.7;102020;;;;
2021/06/07 15:42:46;;;;;;;2.0;1.5;;;;;;;30.5;28.7;102020;;;;
2021/06/07 15:44:46;;;;;;;2.0;1.5;;;;;;;29.8;26.3;102020;;;;
2021/06/07 15:46:46;;;;;;;2.0;1.5;;;;;;;29.5;25.2;102020;;;;
2021/06/07 15:48:46;;;;;;;2.0;1.5;;;;;;;29.7;26.3;102010;;;;
2021/06/07 15:50:46;;;;;;;2.0;1.5;;;;;;;30.1;27.5;102010;;;;
2021/06/07 15:52:46;;;;;;;2.0;1.5;;;;;;;30.0;25.7;102010;;;;
2021/06/07 15:54:46;;;;;;;2.0;1.5;;;;;;;30.2;25.7;102000;;;;
2021/06/07 15:56:46;;;;;;;2.0;1.5;;;;;;;30.1;26.2;102000;;;;
2021/06/07 15:58:46;;;;;;;2.0;1.5;;;;;;;30.6;25.4;102000;;;;
2021/06/07 16:02:47;;;;;;;4.9;2.8;;;;;;;31.0;25.1;102000;;;;
2021/06/07 16:06:48;;;;;;;4.9;2.8;;;;;;;30.4;25.0;102000;;;;
2021/06/07 16:08:46;;;;;;;4.9;2.8;;;;;;;30.0;25.1;102000;;;;
2021/06/07 16:12:49;;;;;;;4.9;2.8;;;;;;;29.7;27.2;102000;;;;
2021/06/07 16:14:50;;;;;;;4.9;2.8;;;;;;;30.0;27.8;102000;;;;
2021/06/07 16:16:50;;;;;;;4.9;2.8;;;;;;;30.1;27.7;102000;;;;
2021/06/07 16:18:49;;;;;;;4.9;2.8;;;;;;;30.5;27.7;101990;;;;
2021/06/07 16:22:46;;;;;;;3.8;2.0;;;;;;;30.2;27.7;101990;;;;
2021/06/07 16:24:46;;;;;;;3.8;2.0;;;;;;;29.6;25.0;101980;;;;
2021/06/07 16:26:46;;;;;;;3.8;2.0;;;;;;;29.4;26.4;101990;;;;
2021/06/07 16:28:46;;;;;;;3.8;2.0;;;;;;;30.1;27.1;101990;;;;
2021/06/07 16:30:46;;;;;;;3.8;2.0;;;;;;;29.6;27.8;101990;;;;
2021/06/07 16:32:46;;;;;;;3.8;2.0;;;;;;;29.7;28.3;101990;;;;
2021/06/07 16:34:46;;;;;;;3.8;2.0;;;;;;;30.1;27.2;101990;;;;
2021/06/07 16:36:46;;;;;;;3.8;2.0;;;;;;;30.5;27.9;101990;;;;
2021/06/07 16:38:46;;;;;;;3.8;2.0;;;;;;;31.3;27.6;101990;;;;
2021/06/07 16:40:46;;;;;;;3.8;2.0;;;;;;;30.9;27.6;101990;;;;
2021/06/07 16:42:46;;;;;;;2.0;1.8;;;;;;;31.1;26.1;101990;;;;
2021/06/07 16:44:46;;;;;;;2.0;1.8;;;;;;;31.3;28.3;101990;;;;
2021/06/07 16:46:46;;;;;;;2.0;1.8;;;;;;;31.6;25.1;101990;;;;
2021/06/07 16:48:46;;;;;;;2.0;1.8;;;;;;;31.1;26.0;101990;;;;
2021/06/07 16:50:48;;;;;;;2.0;1.8;;;;;;;30.7;26.7;101980;;;;
2021/06/07 16:52:47;;;;;;;2.0;1.8;;;;;;;30.5;28.4;101990;;;;
2021/06/07 16:54:46;;;;;;;2.0;1.8;;;;;;;30.4;26.3;101980;;;;
2021/06/07 16:56:46;;;;;;;2.0;1.8;;;;;;;30.7;27.9;101980;;;;
2021/06/07 17:00:46;;;;;;;2.0;1.8;;;;;;;30.2;25.9;101980;;;;
2021/06/07 17:02:47;;;;;;;2.9;2.2;;;;;;;30.5;26.7;101980;;;;
2021/06/07 17:04:46;;;;;;;2.9;2.2;;;;;;;29.9;27.0;101980;;;;
2021/06/07 17:06:46;;;;;;;2.9;2.2;;;;;;;30.6;25.6;101980;;;;
2021/06/07 17:08:46;;;;;;;2.9;2.2;;;;;;;30.5;27.1;101980;;;;
2021/06/07 17:12:48;;;;;;;2.9;2.2;;;;;;;30.3;26.2;101990;;;;
2021/06/07 17:14:48;;;;;;;2.9;2.2;;;;;;;30.1;26.6;101990;;;;
2021/06/07 17:16:48;;;;;;;2.9;2.2;;;;;;;29.9;27.6;101980;;;;
2021/06/07 17:18:46;;;;;;;2.9;2.2;;;;;;;30.3;27.1;101980;;;;
2021/06/07 17:22:46;;;;;;;3.8;2.3;;;;;;;30.5;26.0;101980;;;;
2021/06/07 17:24:46;;;;;;;3.8;2.3;;;;;;;30.3;28.1;101980;;;;
2021/06/07 17:26:46;;;;;;;3.8;2.3;;;;;;;29.9;27.3;101980;;;;
2021/06/07 17:28:46;;;;;;;3.8;2.3;;;;;;;29.0;27.6;101980;;;;
2021/06/07 17:30:46;;;;;;;3.8;2.3;;;;;;;29.1;27.7;101990;;;;
2021/06/07 17:34:46;;;;;;;3.8;2.3;;;;;;;29.4;27.6;101990;;;;
2021/06/07 17:36:46;;;;;;;3.8;2.3;;;;;;;29.0;29.2;101990;;;;
2021/06/07 17:38:46;;;;;;;3.8;2.3;;;;;;;29.2;28.7;101990;;;;
2021/06/07 17:40:46;;;;;;;3.8;2.3;;;;;;;29.3;28.5;101990;;;;
2021/06/07 17:42:47;;;;;;;3.3;2.5;;;;;;;29.1;28.1;101990;;;;
2021/06/07 17:44:46;;;;;;;3.3;2.5;;;;;;;29.0;27.8;101990;;;;
2021/06/07 17:46:46;;;;;;;3.3;2.5;;;;;;;28.8;28.8;101990;;;;
2021/06/07 17:48:48;;;;;;;3.3;2.5;;;;;;;28.7;29.0;101990;;;;
2021/06/07 17:50:46;;;;;;;3.3;2.5;;;;;;;28.5;29.1;101990;;;;
2021/06/07 17:52:47;;;;;;;3.3;2.5;;;;;;;28.2;30.7;101990;;;;
2021/06/07 17:54:47;;;;;;;3.3;2.5;;;;;;;27.5;30.4;101990;;;;
2021/06/07 17:56:46;;;;;;;3.3;2.5;;;;;;;27.3;31.0;101990;;;;
2021/06/07 17:58:46;;;;;;;3.3;2.5;;;;;;;26.9;31.1;101990;;;;
2021/06/07 18:00:46;;;;;;;3.3;2.5;;;;;;;26.7;31.3;101990;;;;
2021/06/07 18:02:47;;;;;;;3.8;3.1;;;;;;;26.5;32.2;101990;;;;
2021/06/07 18:04:46;;;;;;;3.8;3.1;;;;;;;26.6;31.8;101980;;;;
2021/06/07 18:06:49;;;;;;;3.8;3.1;;;;;;;26.2;32.1;101980;;;;
2021/06/07 18:08:46;;;;;;;3.8;3.1;;;;;;;26.1;33.0;101990;;;;
2021/06/07 18:12:47;;;;;;;3.8;3.1;;;;;;;25.9;33.4;101990;;;;
2021/06/07 18:14:46;;;;;;;3.8;3.1;;;;;;;25.6;33.8;101990;;;;
2021/06/07 18:16:46;;;;;;;3.8;3.1;;;;;;;25.5;33.7;101990;;;;
2021/06/07 18:18:46;;;;;;;3.8;3.1;;;;;;;25.3;33.9;102000;;;;
2021/06/07 18:20:46;;;;;;;3.8;3.1;;;;;;;25.0;35.9;101990;;;;
2021/06/07 18:22:47;;;;;;;2.7;2.2;;;;;;;25.4;33.9;101990;;;;
2021/06/07 18:24:46;;;;;;;2.7;2.2;;;;;;;25.0;34.9;101990;;;;
2021/06/07 18:26:46;;;;;;;2.7;2.2;;;;;;;24.8;34.8;101990;;;;
2021/06/07 18:28:47;;;;;;;2.7;2.2;;;;;;;24.9;36.2;101990;;;;
2021/06/07 18:30:46;;;;;;;2.7;2.2;;;;;;;24.8;35.7;101990;;;;
2021/06/07 18:32:46;;;;;;;2.7;2.2;;;;;;;24.9;34.9;101990;;;;
2021/06/07 18:34:46;;;;;;;2.7;2.2;;;;;;;24.7;35.5;101990;;;;
2021/06/07 18:36:46;;;;;;;2.7;2.2;;;;;;;24.8;36.6;101990;;;;
2021/06/07 18:38:46;;;;;;;2.7;2.2;;;;;;;24.9;35.8;101990;;;;
2021/06/07 18:40:46;;;;;;;2.7;2.2;;;;;;;24.8;35.6;101990;;;;
2021/06/07 18:42:46;;;;;;;2.9;2.7;;;;;;;24.9;36.0;101990;;;;
2021/06/07 18:46:46;;;;;;;2.9;2.7;;;;;;;25.0;35.5;101990;;;;
2021/06/07 18:48:46;;;;;;;2.9;2.7;;;;;;;24.9;35.6;101990;;;;
2021/06/07 18:50:46;;;;;;;2.9;2.7;;;;;;;24.8;36.0;101990;;;;
2021/06/07 18:54:46;;;;;;;2.9;2.7;;;;;;;24.5;36.5;102000;;;;
2021/06/07 18:56:46;;;;;;;2.9;2.7;;;;;;;24.4;36.7;102000;;;;
2021/06/07 19:00:46;;;;;;;2.9;2.7;;;;;;;24.2;36.8;102000;;;;
2021/06/07 19:02:46;;;;;;;4.4;3.0;;;;;;;24.1;37.5;102000;;;;
2021/06/07 19:04:46;;;;;;;4.4;3.0;;;;;;;24.3;37.3;102000;;;;
2021/06/07 19:06:46;;;;;;;4.4;3.0;;;;;;;24.1;37.4;102000;;;;
2021/06/07 19:10:46;;;;;;;4.4;3.0;;;;;;;24.0;38.7;102010;;;;
2021/06/07 19:12:46;;;;;;;4.4;3.0;;;;;;;24.1;39.2;102010;;;;
2021/06/07 19:18:46;;;;;;;4.4;3.0;;;;;;;24.0;38.3;102010;;;;
2021/06/07 19:22:46;;;;;;;3.3;2.6;;;;;;;24.1;37.5;102010;;;;
2021/06/07 19:24:46;;;;;;;3.3;2.6;;;;;;;23.9;38.1;102010;;;;